createdAt,value
2022-11-29T00:38:07.577Z,100
2022-11-29T00:58:07.585Z,100
2022-11-29T01:38:07.871Z,100
2022-11-29T01:58:07.884Z,100
2022-11-29T02:18:07.781Z,100
2022-11-29T02:38:07.979Z,99.9
2022-11-29T02:58:07.870Z,99.8
2022-11-29T03:18:07.985Z,99.7
2022-11-29T03:38:08.078Z,99.9
2022-11-29T03:58:08.127Z,99.8
2022-11-29T04:18:08.072Z,99.7
2022-11-29T04:38:08.112Z,99.6
2022-11-29T04:58:08.178Z,99.4
2022-11-29T05:18:08.267Z,99.2
2022-11-29T05:58:08.330Z,98.8
2022-11-29T06:18:08.353Z,98.7
2022-11-29T06:38:08.421Z,98.6
2022-11-29T06:58:08.415Z,98.6
2022-11-29T07:18:08.582Z,98.3
2022-11-29T07:38:08.592Z,97.8
2022-11-29T07:58:08.603Z,97.7
2022-11-29T08:18:08.609Z,97.3
2022-11-29T08:38:08.654Z,96.6
2022-11-29T08:58:08.767Z,96.4
2022-11-29T09:18:08.720Z,95.6
2022-11-29T09:38:08.883Z,95
2022-11-29T09:58:08.873Z,94.3
2022-11-29T10:18:08.933Z,94.1
2022-11-29T10:38:31.051Z,94.2
2022-11-29T10:58:09.009Z,94.1
2022-11-29T11:18:08.988Z,93.7
2022-11-29T11:38:09.061Z,94.3
2022-11-29T11:58:10.481Z,94.2
2022-11-29T12:18:09.145Z,94
2022-11-29T12:38:09.176Z,94.1
2022-11-29T12:58:09.403Z,94.3
2022-11-29T13:18:09.250Z,94.7
2022-11-29T13:38:09.446Z,94.8
2022-11-29T13:58:17.640Z,95.3
2022-11-29T14:18:09.562Z,95.6
2022-11-29T14:38:09.407Z,95.3
2022-11-29T14:58:09.511Z,95.3
2022-11-29T15:18:09.647Z,95.4
2022-11-29T15:58:09.671Z,95.7
2022-11-29T16:18:09.780Z,96
2022-11-29T16:38:09.696Z,96.1
2022-11-29T16:58:09.780Z,96
2022-11-29T17:18:09.875Z,95.9
2022-11-29T17:38:09.885Z,95.9
2022-11-29T17:58:09.886Z,96.2
2022-11-29T18:18:09.900Z,96.4
2022-11-29T18:38:15.498Z,96.8
2022-11-29T18:58:10.009Z,97.1
2022-11-29T19:18:10.067Z,97.1
2022-11-29T19:38:10.248Z,97.1
2022-11-29T19:58:10.180Z,97.2
2022-11-29T20:18:10.301Z,97.1
2022-11-29T20:38:10.275Z,97.1
2022-11-29T20:58:10.289Z,96.7
2022-11-29T21:18:10.318Z,96.6
2022-11-29T21:38:10.515Z,96.6
2022-11-29T22:18:10.782Z,96.4
2022-11-29T22:38:10.611Z,96.3
2022-11-29T22:58:10.632Z,96.3
2022-11-29T23:18:10.614Z,96.1
2022-11-29T23:38:10.628Z,96.1
2022-11-29T23:58:10.731Z,96
